sensor_id;sensor_type;location;lat;lon;timestamp;P1;durP1;ratioP1;P2;durP2;ratioP2
49131;SDS011;35149;51.196;6.204;2022-12-18T00:01:29;22.27;;;12.55;;
49131;SDS011;35149;51.196;6.204;2022-12-18T00:04:03;22.23;;;12.27;;
49131;SDS011;35149;51.196;6.204;2022-12-18T00:06:32;21.80;;;12.77;;
49131;SDS011;35149;51.196;6.204;2022-12-18T00:09:04;20.25;;;11.55;;
49131;SDS011;35149;51.196;6.204;2022-12-18T00:11:31;20.70;;;12.05;;
49131;SDS011;35149;51.196;6.204;2022-12-18T00:14:01;22.40;;;12.65;;
49131;SDS011;35149;51.196;6.204;2022-12-18T00:16:28;21.55;;;12.07;;
49131;SDS011;35149;51.196;6.204;2022-12-18T00:19:04;24.80;;;13.07;;
49131;SDS011;35149;51.196;6.204;2022-12-18T00:21:41;23.75;;;12.20;;
49131;SDS011;35149;51.196;6.204;2022-12-18T00:24:09;21.27;;;12.30;;
49131;SDS011;35149;51.196;6.204;2022-12-18T00:26:40;21.67;;;12.45;;
49131;SDS011;35149;51.196;6.204;2022-12-18T00:29:12;15.85;;;9.52;;
49131;SDS011;35149;51.196;6.204;2022-12-18T00:31:44;22.48;;;12.10;;
49131;SDS011;35149;51.196;6.204;2022-12-18T00:34:16;23.52;;;12.25;;
49131;SDS011;35149;51.196;6.204;2022-12-18T00:36:46;24.77;;;13.77;;
49131;SDS011;35149;51.196;6.204;2022-12-18T00:39:13;19.48;;;11.88;;
49131;SDS011;35149;51.196;6.204;2022-12-18T00:41:43;25.98;;;14.50;;
49131;SDS011;35149;51.196;6.204;2022-12-18T00:44:31;21.77;;;12.70;;
49131;SDS011;35149;51.196;6.204;2022-12-18T00:46:57;23.60;;;12.63;;
49131;SDS011;35149;51.196;6.204;2022-12-18T00:49:24;20.52;;;12.55;;
49131;SDS011;35149;51.196;6.204;2022-12-18T00:51:53;24.92;;;13.88;;
49131;SDS011;35149;51.196;6.204;2022-12-18T00:54:27;25.38;;;14.18;;
49131;SDS011;35149;51.196;6.204;2022-12-18T00:56:58;21.73;;;12.45;;
49131;SDS011;35149;51.196;6.204;2022-12-18T00:59:35;28.08;;;13.75;;
49131;SDS011;35149;51.196;6.204;2022-12-18T01:02:03;22.88;;;12.68;;
49131;SDS011;35149;51.196;6.204;2022-12-18T01:04:35;22.85;;;13.95;;
49131;SDS011;35149;51.196;6.204;2022-12-18T01:07:04;26.88;;;14.45;;
49131;SDS011;35149;51.196;6.204;2022-12-18T01:09:35;26.40;;;15.18;;
49131;SDS011;35149;51.196;6.204;2022-12-18T01:12:05;24.42;;;13.00;;
49131;SDS011;35149;51.196;6.204;2022-12-18T01:14:33;21.90;;;13.07;;
49131;SDS011;35149;51.196;6.204;2022-12-18T01:17:00;23.60;;;13.32;;
49131;SDS011;35149;51.196;6.204;2022-12-18T01:19:31;23.60;;;13.35;;
49131;SDS011;35149;51.196;6.204;2022-12-18T01:21:59;22.15;;;12.48;;
49131;SDS011;35149;51.196;6.204;2022-12-18T01:24:26;20.88;;;12.55;;
49131;SDS011;35149;51.196;6.204;2022-12-18T01:26:53;23.45;;;12.13;;
49131;SDS011;35149;51.196;6.204;2022-12-18T01:29:24;24.05;;;13.25;;
49131;SDS011;35149;51.196;6.204;2022-12-18T01:31:51;22.45;;;13.40;;
49131;SDS011;35149;51.196;6.204;2022-12-18T01:34:21;25.10;;;12.82;;
49131;SDS011;35149;51.196;6.204;2022-12-18T01:36:48;22.58;;;13.52;;
49131;SDS011;35149;51.196;6.204;2022-12-18T01:39:15;24.35;;;13.07;;
49131;SDS011;35149;51.196;6.204;2022-12-18T01:41:44;25.95;;;12.18;;
49131;SDS011;35149;51.196;6.204;2022-12-18T01:47:39;21.95;;;11.80;;
49131;SDS011;35149;51.196;6.204;2022-12-18T01:50:18;20.27;;;12.07;;
49131;SDS011;35149;51.196;6.204;2022-12-18T01:53:06;21.70;;;11.75;;
49131;SDS011;35149;51.196;6.204;2022-12-18T01:55:38;22.40;;;11.20;;
49131;SDS011;35149;51.196;6.204;2022-12-18T01:58:16;21.88;;;12.05;;
49131;SDS011;35149;51.196;6.204;2022-12-18T02:00:44;18.55;;;11.27;;
49131;SDS011;35149;51.196;6.204;2022-12-18T02:03:12;18.65;;;10.68;;
49131;SDS011;35149;51.196;6.204;2022-12-18T02:05:45;20.23;;;11.88;;
49131;SDS011;35149;51.196;6.204;2022-12-18T02:08:28;23.13;;;12.00;;
49131;SDS011;35149;51.196;6.204;2022-12-18T02:11:29;22.67;;;11.88;;
49131;SDS011;35149;51.196;6.204;2022-12-18T02:24:56;22.52;;;13.25;;
49131;SDS011;35149;51.196;6.204;2022-12-18T02:30:24;18.42;;;10.43;;
49131;SDS011;35149;51.196;6.204;2022-12-18T02:32:58;17.92;;;10.60;;
49131;SDS011;35149;51.196;6.204;2022-12-18T02:35:31;16.98;;;10.88;;
49131;SDS011;35149;51.196;6.204;2022-12-18T02:38:00;20.48;;;12.15;;
49131;SDS011;35149;51.196;6.204;2022-12-18T02:40:31;19.92;;;11.43;;
49131;SDS011;35149;51.196;6.204;2022-12-18T02:43:07;20.27;;;11.02;;
49131;SDS011;35149;51.196;6.204;2022-12-18T02:45:35;18.08;;;11.07;;
49131;SDS011;35149;51.196;6.204;2022-12-18T02:48:12;19.90;;;12.95;;
49131;SDS011;35149;51.196;6.204;2022-12-18T02:50:50;22.33;;;11.60;;
49131;SDS011;35149;51.196;6.204;2022-12-18T02:53:39;16.50;;;7.97;;
49131;SDS011;35149;51.196;6.204;2022-12-18T02:56:19;18.73;;;10.68;;
49131;SDS011;35149;51.196;6.204;2022-12-18T02:59:05;16.03;;;8.13;;
49131;SDS011;35149;51.196;6.204;2022-12-18T03:04:39;18.63;;;11.10;;
49131;SDS011;35149;51.196;6.204;2022-12-18T03:07:15;19.35;;;10.55;;
49131;SDS011;35149;51.196;6.204;2022-12-18T03:09:46;18.35;;;10.07;;
49131;SDS011;35149;51.196;6.204;2022-12-18T03:12:30;20.15;;;11.45;;
49131;SDS011;35149;51.196;6.204;2022-12-18T03:15:09;21.10;;;11.07;;
49131;SDS011;35149;51.196;6.204;2022-12-18T03:17:55;18.75;;;10.80;;
49131;SDS011;35149;51.196;6.204;2022-12-18T03:20:29;20.73;;;10.07;;
49131;SDS011;35149;51.196;6.204;2022-12-18T03:23:07;15.80;;;9.52;;
49131;SDS011;35149;51.196;6.204;2022-12-18T03:25:44;18.17;;;10.07;;
49131;SDS011;35149;51.196;6.204;2022-12-18T03:28:14;19.02;;;9.85;;
49131;SDS011;35149;51.196;6.204;2022-12-18T03:30:51;20.42;;;10.45;;
49131;SDS011;35149;51.196;6.204;2022-12-18T03:36:25;16.08;;;9.32;;
49131;SDS011;35149;51.196;6.204;2022-12-18T03:38:53;20.30;;;11.25;;
49131;SDS011;35149;51.196;6.204;2022-12-18T03:44:29;20.38;;;10.90;;
49131;SDS011;35149;51.196;6.204;2022-12-18T03:47:19;19.20;;;10.95;;
49131;SDS011;35149;51.196;6.204;2022-12-18T03:52:49;20.23;;;10.40;;
49131;SDS011;35149;51.196;6.204;2022-12-18T03:55:19;17.55;;;10.02;;
49131;SDS011;35149;51.196;6.204;2022-12-18T03:57:54;18.27;;;9.02;;
49131;SDS011;35149;51.196;6.204;2022-12-18T04:00:26;18.88;;;10.63;;
49131;SDS011;35149;51.196;6.204;2022-12-18T04:03:03;19.63;;;11.23;;
49131;SDS011;35149;51.196;6.204;2022-12-18T04:05:38;19.67;;;10.40;;
49131;SDS011;35149;51.196;6.204;2022-12-18T04:08:11;18.40;;;10.35;;
49131;SDS011;35149;51.196;6.204;2022-12-18T04:10:42;19.52;;;10.13;;
49131;SDS011;35149;51.196;6.204;2022-12-18T04:13:21;14.40;;;7.63;;
49131;SDS011;35149;51.196;6.204;2022-12-18T04:15:57;18.40;;;9.90;;
49131;SDS011;35149;51.196;6.204;2022-12-18T04:18:25;21.60;;;11.70;;
49131;SDS011;35149;51.196;6.204;2022-12-18T04:20:53;19.10;;;10.85;;
49131;SDS011;35149;51.196;6.204;2022-12-18T04:23:21;18.85;;;10.25;;
49131;SDS011;35149;51.196;6.204;2022-12-18T04:25:48;20.65;;;11.15;;
49131;SDS011;35149;51.196;6.204;2022-12-18T04:28:29;35.63;;;13.47;;
49131;SDS011;35149;51.196;6.204;2022-12-18T04:30:58;22.77;;;11.32;;
49131;SDS011;35149;51.196;6.204;2022-12-18T04:33:26;19.50;;;10.65;;
49131;SDS011;35149;51.196;6.204;2022-12-18T04:35:53;22.08;;;12.10;;
49131;SDS011;35149;51.196;6.204;2022-12-18T04:38:19;22.42;;;11.63;;
49131;SDS011;35149;51.196;6.204;2022-12-18T04:40:52;16.10;;;10.68;;
49131;SDS011;35149;51.196;6.204;2022-12-18T04:43:24;19.63;;;11.15;;
49131;SDS011;35149;51.196;6.204;2022-12-18T04:45:53;22.40;;;13.02;;
49131;SDS011;35149;51.196;6.204;2022-12-18T04:48:26;23.17;;;13.23;;
49131;SDS011;35149;51.196;6.204;2022-12-18T04:50:55;25.52;;;12.23;;
49131;SDS011;35149;51.196;6.204;2022-12-18T04:53:22;17.40;;;10.32;;
49131;SDS011;35149;51.196;6.204;2022-12-18T04:56:01;19.55;;;12.02;;
49131;SDS011;35149;51.196;6.204;2022-12-18T04:58:30;20.55;;;12.07;;
49131;SDS011;35149;51.196;6.204;2022-12-18T05:01:05;18.33;;;11.85;;
49131;SDS011;35149;51.196;6.204;2022-12-18T05:03:36;19.92;;;12.93;;
49131;SDS011;35149;51.196;6.204;2022-12-18T05:06:06;23.05;;;12.00;;
49131;SDS011;35149;51.196;6.204;2022-12-18T05:08:36;16.25;;;10.13;;
49131;SDS011;35149;51.196;6.204;2022-12-18T05:13:31;20.05;;;11.68;;
49131;SDS011;35149;51.196;6.204;2022-12-18T05:15:59;20.45;;;12.77;;
49131;SDS011;35149;51.196;6.204;2022-12-18T05:18:27;26.30;;;13.57;;
49131;SDS011;35149;51.196;6.204;2022-12-18T05:20:57;24.15;;;12.45;;
49131;SDS011;35149;51.196;6.204;2022-12-18T05:23:29;22.75;;;12.15;;
49131;SDS011;35149;51.196;6.204;2022-12-18T05:26:00;22.92;;;10.63;;
49131;SDS011;35149;51.196;6.204;2022-12-18T05:28:28;21.75;;;11.38;;
49131;SDS011;35149;51.196;6.204;2022-12-18T05:30:58;25.48;;;14.27;;
49131;SDS011;35149;51.196;6.204;2022-12-18T05:33:27;22.60;;;12.90;;
49131;SDS011;35149;51.196;6.204;2022-12-18T05:35:58;21.95;;;12.20;;
49131;SDS011;35149;51.196;6.204;2022-12-18T05:38:26;20.77;;;11.77;;
49131;SDS011;35149;51.196;6.204;2022-12-18T05:40:58;19.58;;;12.23;;
49131;SDS011;35149;51.196;6.204;2022-12-18T05:43:26;21.38;;;12.27;;
49131;SDS011;35149;51.196;6.204;2022-12-18T05:45:54;23.73;;;11.65;;
49131;SDS011;35149;51.196;6.204;2022-12-18T05:48:24;21.48;;;12.27;;
49131;SDS011;35149;51.196;6.204;2022-12-18T05:50:51;22.80;;;12.18;;
49131;SDS011;35149;51.196;6.204;2022-12-18T05:53:18;26.58;;;15.77;;
49131;SDS011;35149;51.196;6.204;2022-12-18T05:55:47;20.55;;;11.50;;
49131;SDS011;35149;51.196;6.204;2022-12-18T05:58:15;23.30;;;11.55;;
49131;SDS011;35149;51.196;6.204;2022-12-18T06:00:44;24.48;;;13.43;;
49131;SDS011;35149;51.196;6.204;2022-12-18T06:03:11;22.63;;;11.90;;
49131;SDS011;35149;51.196;6.204;2022-12-18T06:05:41;20.27;;;11.95;;
49131;SDS011;35149;51.196;6.204;2022-12-18T06:08:12;23.05;;;13.18;;
49131;SDS011;35149;51.196;6.204;2022-12-18T06:10:41;24.60;;;12.45;;
49131;SDS011;35149;51.196;6.204;2022-12-18T06:13:17;23.85;;;12.65;;
49131;SDS011;35149;51.196;6.204;2022-12-18T06:15:44;23.77;;;14.13;;
49131;SDS011;35149;51.196;6.204;2022-12-18T06:18:11;21.65;;;11.88;;
49131;SDS011;35149;51.196;6.204;2022-12-18T06:20:38;24.10;;;13.63;;
49131;SDS011;35149;51.196;6.204;2022-12-18T06:23:07;26.05;;;15.40;;
49131;SDS011;35149;51.196;6.204;2022-12-18T06:25:37;21.42;;;13.32;;
49131;SDS011;35149;51.196;6.204;2022-12-18T06:28:04;25.45;;;13.45;;
49131;SDS011;35149;51.196;6.204;2022-12-18T06:30:33;29.00;;;15.35;;
49131;SDS011;35149;51.196;6.204;2022-12-18T06:33:00;25.50;;;13.18;;
49131;SDS011;35149;51.196;6.204;2022-12-18T06:35:27;25.58;;;14.35;;
49131;SDS011;35149;51.196;6.204;2022-12-18T06:37:58;20.52;;;12.95;;
49131;SDS011;35149;51.196;6.204;2022-12-18T06:40:27;23.08;;;12.80;;
49131;SDS011;35149;51.196;6.204;2022-12-18T06:42:54;23.85;;;12.90;;
49131;SDS011;35149;51.196;6.204;2022-12-18T06:45:25;22.60;;;13.30;;
49131;SDS011;35149;51.196;6.204;2022-12-18T06:47:52;23.23;;;12.93;;
49131;SDS011;35149;51.196;6.204;2022-12-18T06:50:21;23.70;;;14.18;;
49131;SDS011;35149;51.196;6.204;2022-12-18T06:52:48;20.15;;;12.43;;
49131;SDS011;35149;51.196;6.204;2022-12-18T06:55:19;21.40;;;13.13;;
49131;SDS011;35149;51.196;6.204;2022-12-18T06:57:46;22.95;;;12.95;;
49131;SDS011;35149;51.196;6.204;2022-12-18T07:00:17;24.40;;;13.57;;
49131;SDS011;35149;51.196;6.204;2022-12-18T07:02:47;23.70;;;12.75;;
49131;SDS011;35149;51.196;6.204;2022-12-18T07:05:13;28.00;;;13.65;;
49131;SDS011;35149;51.196;6.204;2022-12-18T07:07:40;21.67;;;12.57;;
49131;SDS011;35149;51.196;6.204;2022-12-18T07:10:09;21.48;;;12.95;;
49131;SDS011;35149;51.196;6.204;2022-12-18T07:12:38;23.48;;;12.75;;
49131;SDS011;35149;51.196;6.204;2022-12-18T07:15:04;29.00;;;13.93;;
49131;SDS011;35149;51.196;6.204;2022-12-18T07:17:34;22.50;;;12.55;;
49131;SDS011;35149;51.196;6.204;2022-12-18T07:20:05;20.20;;;12.90;;
49131;SDS011;35149;51.196;6.204;2022-12-18T07:22:32;25.30;;;14.25;;
49131;SDS011;35149;51.196;6.204;2022-12-18T07:24:59;23.20;;;14.07;;
49131;SDS011;35149;51.196;6.204;2022-12-18T07:27:26;21.13;;;14.15;;
49131;SDS011;35149;51.196;6.204;2022-12-18T07:29:53;21.83;;;12.02;;
49131;SDS011;35149;51.196;6.204;2022-12-18T07:32:21;22.23;;;13.25;;
49131;SDS011;35149;51.196;6.204;2022-12-18T07:34:48;22.65;;;12.88;;
49131;SDS011;35149;51.196;6.204;2022-12-18T07:37:17;22.85;;;13.40;;
49131;SDS011;35149;51.196;6.204;2022-12-18T07:39:48;20.50;;;11.47;;
49131;SDS011;35149;51.196;6.204;2022-12-18T07:42:21;26.88;;;15.35;;
49131;SDS011;35149;51.196;6.204;2022-12-18T07:44:59;31.98;;;17.27;;
49131;SDS011;35149;51.196;6.204;2022-12-18T07:47:27;29.27;;;17.33;;
49131;SDS011;35149;51.196;6.204;2022-12-18T07:49:59;29.90;;;17.55;;
49131;SDS011;35149;51.196;6.204;2022-12-18T07:52:28;26.25;;;16.05;;
49131;SDS011;35149;51.196;6.204;2022-12-18T07:54:55;25.85;;;15.45;;
49131;SDS011;35149;51.196;6.204;2022-12-18T07:57:24;24.10;;;15.18;;
49131;SDS011;35149;51.196;6.204;2022-12-18T08:00:11;24.35;;;14.93;;
49131;SDS011;35149;51.196;6.204;2022-12-18T08:02:38;27.63;;;16.20;;
49131;SDS011;35149;51.196;6.204;2022-12-18T08:05:05;25.35;;;15.45;;
49131;SDS011;35149;51.196;6.204;2022-12-18T08:07:32;23.77;;;15.90;;
49131;SDS011;35149;51.196;6.204;2022-12-18T08:09:59;28.45;;;15.30;;
49131;SDS011;35149;51.196;6.204;2022-12-18T08:12:25;26.10;;;15.82;;
49131;SDS011;35149;51.196;6.204;2022-12-18T08:14:52;34.67;;;16.95;;
49131;SDS011;35149;51.196;6.204;2022-12-18T08:17:19;27.95;;;14.55;;
49131;SDS011;35149;51.196;6.204;2022-12-18T08:19:46;24.42;;;14.75;;
49131;SDS011;35149;51.196;6.204;2022-12-18T08:22:12;25.88;;;14.70;;
49131;SDS011;35149;51.196;6.204;2022-12-18T08:24:39;23.30;;;14.35;;
49131;SDS011;35149;51.196;6.204;2022-12-18T08:27:06;23.05;;;15.32;;
49131;SDS011;35149;51.196;6.204;2022-12-18T08:29:52;25.35;;;15.38;;
49131;SDS011;35149;51.196;6.204;2022-12-18T08:32:19;29.02;;;16.13;;
49131;SDS011;35149;51.196;6.204;2022-12-18T08:34:46;24.02;;;15.05;;
49131;SDS011;35149;51.196;6.204;2022-12-18T08:37:12;26.58;;;15.43;;
49131;SDS011;35149;51.196;6.204;2022-12-18T08:39:39;29.63;;;17.08;;
49131;SDS011;35149;51.196;6.204;2022-12-18T08:42:06;55.22;;;28.58;;
49131;SDS011;35149;51.196;6.204;2022-12-18T08:44:51;46.83;;;26.13;;
49131;SDS011;35149;51.196;6.204;2022-12-18T08:47:19;38.03;;;21.15;;
49131;SDS011;35149;51.196;6.204;2022-12-18T08:49:46;30.45;;;18.60;;
49131;SDS011;35149;51.196;6.204;2022-12-18T08:52:12;30.17;;;17.92;;
49131;SDS011;35149;51.196;6.204;2022-12-18T08:54:39;57.17;;;33.35;;
49131;SDS011;35149;51.196;6.204;2022-12-18T08:57:05;54.70;;;29.00;;
49131;SDS011;35149;51.196;6.204;2022-12-18T08:59:32;35.30;;;23.30;;
49131;SDS011;35149;51.196;6.204;2022-12-18T09:01:59;28.77;;;19.63;;
49131;SDS011;35149;51.196;6.204;2022-12-18T09:04:26;25.58;;;16.30;;
49131;SDS011;35149;51.196;6.204;2022-12-18T09:06:54;27.60;;;17.17;;
49131;SDS011;35149;51.196;6.204;2022-12-18T09:09:21;26.33;;;16.25;;
49131;SDS011;35149;51.196;6.204;2022-12-18T09:11:48;31.30;;;17.60;;
49131;SDS011;35149;51.196;6.204;2022-12-18T09:14:14;26.67;;;17.00;;
49131;SDS011;35149;51.196;6.204;2022-12-18T09:16:41;27.60;;;15.90;;
49131;SDS011;35149;51.196;6.204;2022-12-18T09:19:08;28.05;;;18.10;;
49131;SDS011;35149;51.196;6.204;2022-12-18T09:21:36;29.58;;;16.33;;
49131;SDS011;35149;51.196;6.204;2022-12-18T09:24:11;43.05;;;22.35;;
49131;SDS011;35149;51.196;6.204;2022-12-18T09:26:39;105.45;;;42.92;;
49131;SDS011;35149;51.196;6.204;2022-12-18T09:29:08;86.43;;;39.15;;
49131;SDS011;35149;51.196;6.204;2022-12-18T09:31:35;50.35;;;29.38;;
49131;SDS011;35149;51.196;6.204;2022-12-18T09:34:02;36.88;;;21.63;;
49131;SDS011;35149;51.196;6.204;2022-12-18T09:36:29;30.33;;;16.52;;
49131;SDS011;35149;51.196;6.204;2022-12-18T09:38:56;27.58;;;16.33;;
49131;SDS011;35149;51.196;6.204;2022-12-18T09:44:16;24.85;;;14.93;;
49131;SDS011;35149;51.196;6.204;2022-12-18T09:49:40;23.67;;;14.70;;
49131;SDS011;35149;51.196;6.204;2022-12-18T09:52:11;25.45;;;15.30;;
49131;SDS011;35149;51.196;6.204;2022-12-18T09:54:48;26.55;;;14.52;;
49131;SDS011;35149;51.196;6.204;2022-12-18T09:57:32;22.92;;;14.00;;
49131;SDS011;35149;51.196;6.204;2022-12-18T10:00:04;22.15;;;14.43;;
49131;SDS011;35149;51.196;6.204;2022-12-18T10:02:42;27.08;;;15.38;;
49131;SDS011;35149;51.196;6.204;2022-12-18T10:05:13;27.83;;;16.67;;
49131;SDS011;35149;51.196;6.204;2022-12-18T10:10:32;27.38;;;15.57;;
49131;SDS011;35149;51.196;6.204;2022-12-18T10:19:32;45.78;;;26.33;;
49131;SDS011;35149;51.196;6.204;2022-12-18T10:22:24;33.95;;;17.80;;
49131;SDS011;35149;51.196;6.204;2022-12-18T10:25:03;27.17;;;16.65;;
49131;SDS011;35149;51.196;6.204;2022-12-18T10:27:32;32.03;;;17.90;;
49131;SDS011;35149;51.196;6.204;2022-12-18T10:29:58;30.17;;;18.45;;
49131;SDS011;35149;51.196;6.204;2022-12-18T10:32:28;30.77;;;18.35;;
49131;SDS011;35149;51.196;6.204;2022-12-18T10:34:56;27.92;;;17.95;;
49131;SDS011;35149;51.196;6.204;2022-12-18T10:37:28;29.90;;;18.95;;
49131;SDS011;35149;51.196;6.204;2022-12-18T10:42:43;37.40;;;20.17;;
49131;SDS011;35149;51.196;6.204;2022-12-18T10:47:46;29.20;;;17.52;;
49131;SDS011;35149;51.196;6.204;2022-12-18T10:53:22;23.98;;;15.02;;
49131;SDS011;35149;51.196;6.204;2022-12-18T10:55:51;24.92;;;15.38;;
49131;SDS011;35149;51.196;6.204;2022-12-18T11:01:04;25.90;;;16.25;;
49131;SDS011;35149;51.196;6.204;2022-12-18T11:03:40;24.15;;;15.40;;
49131;SDS011;35149;51.196;6.204;2022-12-18T11:06:09;26.30;;;17.38;;
49131;SDS011;35149;51.196;6.204;2022-12-18T11:08:37;34.80;;;20.45;;
49131;SDS011;35149;51.196;6.204;2022-12-18T11:11:21;39.13;;;22.85;;
49131;SDS011;35149;51.196;6.204;2022-12-18T11:13:52;30.38;;;18.73;;
49131;SDS011;35149;51.196;6.204;2022-12-18T11:16:25;30.88;;;21.25;;
49131;SDS011;35149;51.196;6.204;2022-12-18T11:18:57;34.30;;;18.38;;
49131;SDS011;35149;51.196;6.204;2022-12-18T11:21:48;30.90;;;19.50;;
49131;SDS011;35149;51.196;6.204;2022-12-18T11:24:23;27.60;;;17.75;;
49131;SDS011;35149;51.196;6.204;2022-12-18T11:26:56;32.35;;;19.98;;
49131;SDS011;35149;51.196;6.204;2022-12-18T11:34:42;27.58;;;16.75;;
49131;SDS011;35149;51.196;6.204;2022-12-18T11:37:13;23.02;;;15.73;;
49131;SDS011;35149;51.196;6.204;2022-12-18T11:39:46;24.00;;;17.40;;
49131;SDS011;35149;51.196;6.204;2022-12-18T11:42:23;31.38;;;19.10;;
49131;SDS011;35149;51.196;6.204;2022-12-18T11:47:38;34.03;;;18.77;;
49131;SDS011;35149;51.196;6.204;2022-12-18T11:50:29;31.85;;;18.27;;
49131;SDS011;35149;51.196;6.204;2022-12-18T11:53:12;28.75;;;16.73;;
49131;SDS011;35149;51.196;6.204;2022-12-18T11:58:34;33.05;;;18.73;;
49131;SDS011;35149;51.196;6.204;2022-12-18T12:04:37;30.05;;;17.95;;
49131;SDS011;35149;51.196;6.204;2022-12-18T12:07:25;29.48;;;18.23;;
49131;SDS011;35149;51.196;6.204;2022-12-18T12:10:05;40.30;;;21.13;;
49131;SDS011;35149;51.196;6.204;2022-12-18T12:12:54;27.73;;;17.10;;
49131;SDS011;35149;51.196;6.204;2022-12-18T12:31:23;30.40;;;16.63;;
49131;SDS011;35149;51.196;6.204;2022-12-18T12:34:16;27.65;;;16.70;;
49131;SDS011;35149;51.196;6.204;2022-12-18T12:39:42;25.55;;;16.42;;
49131;SDS011;35149;51.196;6.204;2022-12-18T12:42:14;23.13;;;14.52;;
49131;SDS011;35149;51.196;6.204;2022-12-18T12:45:13;26.38;;;15.02;;
49131;SDS011;35149;51.196;6.204;2022-12-18T12:47:49;22.67;;;13.98;;
49131;SDS011;35149;51.196;6.204;2022-12-18T12:50:18;30.05;;;15.10;;
49131;SDS011;35149;51.196;6.204;2022-12-18T12:52:49;27.80;;;15.20;;
49131;SDS011;35149;51.196;6.204;2022-12-18T12:55:22;24.08;;;14.20;;
49131;SDS011;35149;51.196;6.204;2022-12-18T13:00:40;23.20;;;15.07;;
49131;SDS011;35149;51.196;6.204;2022-12-18T13:03:35;33.83;;;21.08;;
49131;SDS011;35149;51.196;6.204;2022-12-18T13:09:17;28.17;;;17.25;;
49131;SDS011;35149;51.196;6.204;2022-12-18T13:11:45;28.02;;;18.48;;
49131;SDS011;35149;51.196;6.204;2022-12-18T13:14:35;30.15;;;18.77;;
49131;SDS011;35149;51.196;6.204;2022-12-18T13:25:30;23.92;;;14.93;;
49131;SDS011;35149;51.196;6.204;2022-12-18T13:28:14;25.50;;;16.05;;
49131;SDS011;35149;51.196;6.204;2022-12-18T13:30:43;28.77;;;15.38;;
49131;SDS011;35149;51.196;6.204;2022-12-18T13:41:00;30.58;;;17.50;;
49131;SDS011;35149;51.196;6.204;2022-12-18T13:44:10;26.65;;;16.88;;
49131;SDS011;35149;51.196;6.204;2022-12-18T13:46:42;25.63;;;16.15;;
49131;SDS011;35149;51.196;6.204;2022-12-18T13:51:42;28.83;;;16.33;;
49131;SDS011;35149;51.196;6.204;2022-12-18T13:56:47;43.22;;;20.02;;
49131;SDS011;35149;51.196;6.204;2022-12-18T13:59:25;31.42;;;18.05;;
49131;SDS011;35149;51.196;6.204;2022-12-18T14:01:56;28.80;;;16.05;;
49131;SDS011;35149;51.196;6.204;2022-12-18T14:04:28;32.20;;;17.52;;
49131;SDS011;35149;51.196;6.204;2022-12-18T14:07:03;26.35;;;16.35;;
49131;SDS011;35149;51.196;6.204;2022-12-18T14:09:37;33.65;;;16.88;;
49131;SDS011;35149;51.196;6.204;2022-12-18T14:12:14;34.92;;;15.95;;
49131;SDS011;35149;51.196;6.204;2022-12-18T14:15:31;25.52;;;14.80;;
49131;SDS011;35149;51.196;6.204;2022-12-18T14:20:44;28.65;;;16.80;;
49131;SDS011;35149;51.196;6.204;2022-12-18T14:26:24;31.40;;;18.05;;
49131;SDS011;35149;51.196;6.204;2022-12-18T14:29:17;29.42;;;15.95;;
49131;SDS011;35149;51.196;6.204;2022-12-18T14:32:11;27.27;;;16.05;;
49131;SDS011;35149;51.196;6.204;2022-12-18T14:34:45;32.63;;;16.20;;
49131;SDS011;35149;51.196;6.204;2022-12-18T14:37:17;27.20;;;16.20;;
49131;SDS011;35149;51.196;6.204;2022-12-18T14:42:26;29.95;;;17.15;;
49131;SDS011;35149;51.196;6.204;2022-12-18T14:48:15;27.75;;;16.75;;
49131;SDS011;35149;51.196;6.204;2022-12-18T14:50:59;28.30;;;18.23;;
49131;SDS011;35149;51.196;6.204;2022-12-18T14:53:32;28.38;;;17.58;;
49131;SDS011;35149;51.196;6.204;2022-12-18T14:56:02;26.63;;;17.10;;
49131;SDS011;35149;51.196;6.204;2022-12-18T14:58:36;29.50;;;17.70;;
49131;SDS011;35149;51.196;6.204;2022-12-18T15:01:03;35.80;;;17.80;;
49131;SDS011;35149;51.196;6.204;2022-12-18T15:03:29;27.65;;;16.70;;
49131;SDS011;35149;51.196;6.204;2022-12-18T15:05:58;28.17;;;16.58;;
49131;SDS011;35149;51.196;6.204;2022-12-18T15:08:42;33.40;;;16.65;;
49131;SDS011;35149;51.196;6.204;2022-12-18T15:11:54;37.92;;;22.15;;
49131;SDS011;35149;51.196;6.204;2022-12-18T15:13:59;44.67;;;25.17;;
49131;SDS011;35149;51.196;6.204;2022-12-18T15:16:26;50.20;;;26.58;;
49131;SDS011;35149;51.196;6.204;2022-12-18T15:18:53;43.17;;;22.63;;
49131;SDS011;35149;51.196;6.204;2022-12-18T15:21:20;43.58;;;24.67;;
49131;SDS011;35149;51.196;6.204;2022-12-18T15:23:48;39.60;;;23.65;;
49131;SDS011;35149;51.196;6.204;2022-12-18T15:26:18;41.72;;;23.80;;
49131;SDS011;35149;51.196;6.204;2022-12-18T15:28:50;41.47;;;24.40;;
49131;SDS011;35149;51.196;6.204;2022-12-18T15:31:23;46.55;;;24.15;;
49131;SDS011;35149;51.196;6.204;2022-12-18T15:36:22;39.08;;;22.05;;
49131;SDS011;35149;51.196;6.204;2022-12-18T15:38:54;51.40;;;28.83;;
49131;SDS011;35149;51.196;6.204;2022-12-18T15:41:31;112.90;;;41.78;;
49131;SDS011;35149;51.196;6.204;2022-12-18T15:44:01;54.45;;;26.70;;
49131;SDS011;35149;51.196;6.204;2022-12-18T15:46:29;39.72;;;21.80;;
49131;SDS011;35149;51.196;6.204;2022-12-18T15:48:57;37.92;;;22.70;;
49131;SDS011;35149;51.196;6.204;2022-12-18T15:51:31;35.72;;;20.88;;
49131;SDS011;35149;51.196;6.204;2022-12-18T15:54:01;30.55;;;19.02;;
49131;SDS011;35149;51.196;6.204;2022-12-18T15:56:30;37.00;;;20.80;;
49131;SDS011;35149;51.196;6.204;2022-12-18T15:59:35;31.25;;;19.83;;
49131;SDS011;35149;51.196;6.204;2022-12-18T16:02:07;33.67;;;20.10;;
49131;SDS011;35149;51.196;6.204;2022-12-18T16:04:43;27.75;;;18.85;;
49131;SDS011;35149;51.196;6.204;2022-12-18T16:07:11;34.00;;;20.20;;
49131;SDS011;35149;51.196;6.204;2022-12-18T16:09:49;31.67;;;19.92;;
49131;SDS011;35149;51.196;6.204;2022-12-18T16:12:17;29.55;;;18.55;;
49131;SDS011;35149;51.196;6.204;2022-12-18T16:14:47;27.70;;;17.52;;
49131;SDS011;35149;51.196;6.204;2022-12-18T16:17:15;30.65;;;19.10;;
49131;SDS011;35149;51.196;6.204;2022-12-18T16:19:41;28.80;;;18.83;;
49131;SDS011;35149;51.196;6.204;2022-12-18T16:22:15;31.27;;;18.55;;
49131;SDS011;35149;51.196;6.204;2022-12-18T16:24:47;32.92;;;18.10;;
49131;SDS011;35149;51.196;6.204;2022-12-18T16:27:14;33.35;;;20.20;;
49131;SDS011;35149;51.196;6.204;2022-12-18T16:29:40;31.70;;;18.55;;
49131;SDS011;35149;51.196;6.204;2022-12-18T16:32:08;31.50;;;18.73;;
49131;SDS011;35149;51.196;6.204;2022-12-18T16:34:46;31.15;;;19.55;;
49131;SDS011;35149;51.196;6.204;2022-12-18T16:37:14;30.40;;;18.38;;
49131;SDS011;35149;51.196;6.204;2022-12-18T16:39:42;35.42;;;20.20;;
49131;SDS011;35149;51.196;6.204;2022-12-18T16:42:10;35.70;;;20.17;;
49131;SDS011;35149;51.196;6.204;2022-12-18T16:44:40;36.33;;;20.10;;
49131;SDS011;35149;51.196;6.204;2022-12-18T16:47:07;34.58;;;18.13;;
49131;SDS011;35149;51.196;6.204;2022-12-18T16:49:35;35.17;;;18.98;;
49131;SDS011;35149;51.196;6.204;2022-12-18T16:52:03;34.28;;;19.70;;
49131;SDS011;35149;51.196;6.204;2022-12-18T16:54:33;33.85;;;18.75;;
49131;SDS011;35149;51.196;6.204;2022-12-18T16:57:01;34.83;;;19.83;;
49131;SDS011;35149;51.196;6.204;2022-12-18T16:59:30;31.45;;;18.83;;
49131;SDS011;35149;51.196;6.204;2022-12-18T17:01:57;36.85;;;17.65;;